Climatologie pour Saint-Brevin les Pins
Jour • Résumé pour mars 22, 2017 Système :  Métrique    Anglais   Mixte
« - 1 jour
+ 1 jour »
Jour Semaine Mois Année Personnalisé
  Maximum : Minimum : Moyenne :
Température sous abri : -17.8 °C -16.2 °C -13.4 °C
Point de rosée : -17.8 °C -16.5 °C -14.7 °C
Humidité : Humidity % 73 % 86 %
Vitesse du vent : 0 km/h 0 km/h 12.6 km/h
Rafale : 0 km/h - -
Direction :- - SSW
Pression : 0 hPa 34029.3 hPa -
Précipitations : 154.94 mm    
Historical Graphs
 
 
Tableau de données pour mars 22, 2017
Heure Tempé Pt rosée Pression Vent Vitesse Rafale Humidité Taux pluie (/hr) Soleil
-17.8 °C -17.8 °C 0 hPa Calm     Humidity % 0 mm SolarRadiationWatts/m^2 W/m2 Conditions
00:00 -13.4 °C -15.2 °C 34256.2 hPa South 18.2 km/h 33.6 km/h 80 % 0 mm 0 W/m2
00:10 -13.4 °C -15.3 °C 34246 hPa SSE 15.6 km/h 28.5 km/h 79 % 0 mm 0 W/m2
00:20 -13.5 °C -15.2 °C 34246 hPa South 18.2 km/h 28.5 km/h 81 % 0 mm 0 W/m2
00:25 -13.4 °C -15.2 °C 34235.8 hPa South 20.8 km/h 25.9 km/h 81 % 0 mm 0 W/m2
00:30 -13.4 °C -14.9 °C 34235.8 hPa SSW 12.9 km/h 31.1 km/h 82 % 0 mm 0 W/m2
00:35 -13.3 °C -14.9 °C 34235.8 hPa South 10.3 km/h 31.1 km/h 82 % 0 mm 0 W/m2
00:40 -13.3 °C -15 °C 34222.3 hPa SSW 15.6 km/h 28.5 km/h 81 % 0 mm 0 W/m2
00:45 -13.2 °C -14.9 °C 34222.3 hPa South 12.9 km/h 28.5 km/h 81 % 0 mm 0 W/m2
00:50 -13.2 °C -14.8 °C 34222.3 hPa SSE 5.1 km/h 25.9 km/h 82 % 0 mm 0 W/m2
00:55 -13.2 °C -14.8 °C 34212.1 hPa South 15.6 km/h 25.9 km/h 82 % 0 mm 0 W/m2
01:00 -13.2 °C -14.8 °C 34212.1 hPa SSW 20.8 km/h 41.4 km/h 82 % 0 mm 0 W/m2
01:05 -13.1 °C -14.7 °C 34212.1 hPa SSW 20.8 km/h 41.4 km/h 82 % 0 mm 0 W/m2
01:10 -12.9 °C -14.7 °C 34212.1 hPa SSW 10.3 km/h 41.4 km/h 81 % 0 mm 0 W/m2
01:15 -12.8 °C -14.8 °C 34198.6 hPa SSW 12.9 km/h 36.2 km/h 78 % 0 mm 0 W/m2
01:20 -12.8 °C -14.9 °C 34198.6 hPa SSW 12.9 km/h 36.2 km/h 77 % 0 mm 0 W/m2
01:30 -12.8 °C -15 °C 34188.4 hPa South 31.1 km/h 46.7 km/h 76 % 0 mm 0 W/m2
01:40 -12.8 °C -14.7 °C 34188.4 hPa South 18.2 km/h 44.1 km/h 79 % 0 mm 0 W/m2
01:45 -12.8 °C -14.7 °C 34178.3 hPa SSW 18.2 km/h 49.2 km/h 80 % 0 mm 0 W/m2
01:50 -12.8 °C -14.6 °C 34178.3 hPa South 31.1 km/h 49.2 km/h 81 % 0 mm 0 W/m2
01:55 -12.8 °C -14.5 °C 34178.3 hPa South 15.6 km/h 51.8 km/h 81 % 0 mm 0 W/m2
02:00 -12.8 °C -14.5 °C 34164.7 hPa SSW 18.2 km/h 51.8 km/h 81 % 0 mm 0 W/m2
02:05 -12.7 °C -14.4 °C 34164.7 hPa South 31.1 km/h 49.2 km/h 81 % 0 mm 0 W/m2
02:10 -12.7 °C -14.6 °C 34154.6 hPa SSW 41.4 km/h 46.7 km/h 80 % 0 mm 0 W/m2
02:15 -12.7 °C -14.5 °C 34154.6 hPa SSE 20.8 km/h 46.7 km/h 80 % 0 mm 0 W/m2
02:25 -12.7 °C -14.5 °C 34144.4 hPa South 20.8 km/h 49.2 km/h 80 % 0 mm 0 W/m2
02:30 -12.7 °C -14.5 °C 34144.4 hPa SSW 23.3 km/h 46.7 km/h 80 % 0 mm 0 W/m2
02:35 -12.7 °C -14.5 °C 34144.4 hPa South 28.5 km/h 46.7 km/h 80 % 0 mm 0 W/m2
02:40 -12.6 °C -14.3 °C 34144.4 hPa South 33.6 km/h 46.7 km/h 81 % 0 mm 0 W/m2
02:45 -12.6 °C -14.4 °C 34130.9 hPa SSW 46.7 km/h 49.2 km/h 80 % 0 mm 0 W/m2
02:50 -12.6 °C -14.6 °C 34130.9 hPa SSW 49.2 km/h 49.2 km/h 78 % 0 mm 0 W/m2
02:55 -12.5 °C -14.5 °C 34130.9 hPa South 25.9 km/h 49.2 km/h 78 % 0 mm 0 W/m2
03:00 -12.6 °C -14.7 °C 34120.7 hPa SSW 23.3 km/h 51.8 km/h 77 % 0 mm 0 W/m2
03:05 -12.6 °C -14.7 °C 34120.7 hPa South 44.1 km/h 59.5 km/h 77 % 0 mm 0 W/m2
03:10 -12.5 °C -14.6 °C 34120.7 hPa South 46.7 km/h 67.3 km/h 77 % 0 mm 0 W/m2
03:15 -12.5 °C -14.6 °C 34120.7 hPa South 28.5 km/h 67.3 km/h 77 % 0 mm 0 W/m2
03:20 -12.6 °C -14.4 °C 34107.2 hPa South 46.7 km/h 54.4 km/h 79 % 0 mm 0 W/m2
03:25 -12.6 °C -14.5 °C 34107.2 hPa SSW 20.8 km/h 62.1 km/h 79 % 0 mm 0 W/m2
03:30 -12.6 °C -14.3 °C 34107.2 hPa South 25.9 km/h 62.1 km/h 80 % 0 mm 0 W/m2
03:35 -12.4 °C -14.3 °C 34097 hPa SW 12.9 km/h 51.8 km/h 80 % 0 mm 0 W/m2
03:40 -12.4 °C -14.2 °C 34097 hPa SSW 18.2 km/h 51.8 km/h 80 % 0 mm 0 W/m2
03:45 -12.3 °C -14.3 °C 34097 hPa SSW 18.2 km/h 46.7 km/h 79 % 0 mm 0 W/m2
03:50 -12.3 °C -14.3 °C 34086.9 hPa SW 31.1 km/h 49.2 km/h 79 % 0 mm 0 W/m2
03:55 -12.4 °C -14.3 °C 34086.9 hPa SSW 28.5 km/h 64.7 km/h 79 % 0 mm 0 W/m2
04:00 -12.4 °C -14.3 °C 34086.9 hPa South 44.1 km/h 64.7 km/h 79 % 0 mm 0 W/m2
04:05 -12.4 °C -14.4 °C 34073.3 hPa SW 20.8 km/h 54.4 km/h 79 % 0 mm 0 W/m2
04:10 -12.4 °C -14.3 °C 34073.3 hPa South 18.2 km/h 51.8 km/h 80 % 0 mm 0 W/m2
04:15 -12.4 °C -14.2 °C 34073.3 hPa South 41.4 km/h 54.4 km/h 80 % 0 mm 0 W/m2
04:20 -12.3 °C -14 °C 34086.9 hPa NW 36.2 km/h 57 km/h 82 % 0 mm 0 W/m2
04:25 -12.8 °C -14.3 °C 34086.9 hPa SSW 36.2 km/h 72.6 km/h 83 % 12.7 mm 0 W/m2
04:30 -13.2 °C -14.3 °C 34073.3 hPa SW 46.7 km/h 72.6 km/h 87 % 12.7 mm 0 W/m2
04:35 -13.2 °C -14.2 °C 34063.2 hPa SW 33.6 km/h 54.4 km/h 89 % 20.32 mm 0 W/m2
04:40 -13.2 °C -14.1 °C 34063.2 hPa SSW 15.6 km/h 51.8 km/h 89 % 20.32 mm 0 W/m2
04:45 -13.1 °C -14.1 °C 34063.2 hPa WSW 28.5 km/h 54.4 km/h 89 % 20.32 mm 0 W/m2
04:50 -13 °C -13.9 °C 34063.2 hPa South 18.2 km/h 54.4 km/h 90 % 25.4 mm 0 W/m2
04:55 -13.1 °C -13.9 °C 34063.2 hPa SW 10.3 km/h 46.7 km/h 90 % 38.1 mm 0 W/m2
05:00 -13.1 °C -13.8 °C 34049.6 hPa SSW 10.3 km/h 51.8 km/h 91 % 50.8 mm 0 W/m2
05:05 -13.2 °C -13.9 °C 34049.6 hPa South 15.6 km/h 51.8 km/h 91 % 50.8 mm 0 W/m2
05:10 -13.2 °C -13.8 °C 34049.6 hPa SSW 25.9 km/h 51.8 km/h 92 % 50.8 mm 0 W/m2
05:15 -13.2 °C -13.8 °C 34049.6 hPa SSW 18.2 km/h 57 km/h 92 % 50.8 mm 0 W/m2
05:20 -13.2 °C -14 °C 34049.6 hPa South 38.8 km/h 57 km/h 91 % 58.42 mm 0 W/m2
05:25 -13.2 °C -13.9 °C 34049.6 hPa SSE 10.3 km/h 57 km/h 92 % 45.72 mm 0 W/m2
05:30 -13.2 °C -13.9 °C 34039.5 hPa SW 12.9 km/h 57 km/h 92 % 45.72 mm 0 W/m2
05:40 -13.4 °C -14.2 °C 34049.6 hPa West 20.8 km/h 54.4 km/h 91 % 50.8 mm 0 W/m2
05:45 -13.4 °C -14.1 °C 34039.5 hPa West 15.6 km/h 44.1 km/h 92 % 58.42 mm 0 W/m2
05:50 -13.4 °C -14.2 °C 34039.5 hPa SW 15.6 km/h 44.1 km/h 91 % 50.8 mm 0 W/m2
05:55 -13.5 °C -14.3 °C 34039.5 hPa South 12.9 km/h 41.4 km/h 91 % 38.1 mm 0 W/m2
06:00 -13.6 °C -14.3 °C 34039.5 hPa SW 10.3 km/h 33.6 km/h 91 % 33.02 mm 0 W/m2
06:10 -13.6 °C -14.3 °C 34039.5 hPa West 12.9 km/h 33.6 km/h 91 % 33.02 mm 0 W/m2
06:20 -13.6 °C -14.3 °C 34039.5 hPa WSW 25.9 km/h 36.2 km/h 91 % 25.4 mm 0 W/m2
06:25 -13.5 °C -14.3 °C 34039.5 hPa WSW 18.2 km/h 41.4 km/h 91 % 25.4 mm 0 W/m2
06:30 -13.4 °C -14.2 °C 34039.5 hPa WSW 20.8 km/h 41.4 km/h 91 % 20.32 mm 0 W/m2
06:35 -13.4 °C -14.2 °C 34039.5 hPa SW 10.3 km/h 41.4 km/h 91 % 12.7 mm 0 W/m2
06:40 -13.4 °C -14.2 °C 34029.3 hPa SW 7.7 km/h 44.1 km/h 91 % 7.62 mm 0 W/m2
06:45 -13.3 °C -14.1 °C 34029.3 hPa SW 12.9 km/h 44.1 km/h 91 % 7.62 mm 0 W/m2
06:50 -13.2 °C -14 °C 34029.3 hPa SSW 10.3 km/h 44.1 km/h 91 % 7.62 mm 0 W/m2
06:55 -13.2 °C -14 °C 34029.3 hPa SW 25.9 km/h 44.1 km/h 91 % 7.62 mm 0 W/m2
07:00 -13.2 °C -14 °C 34029.3 hPa SSW 7.7 km/h 31.1 km/h 91 % 0 mm 0 W/m2
07:10 -13.2 °C -14 °C 34029.3 hPa WSW 12.9 km/h 33.6 km/h 91 % 0 mm 0 W/m2
07:15 -13.2 °C -14 °C 34029.3 hPa SW 15.6 km/h 31.1 km/h 91 % 0 mm 0 W/m2
07:20 -13.2 °C -13.9 °C 34029.3 hPa SW 28.5 km/h 33.6 km/h 91 % 0 mm 0 W/m2
07:25 -13.1 °C -13.8 °C 34029.3 hPa SSW 7.7 km/h 33.6 km/h 91 % 0 mm 11 W/m2
07:30 -13.1 °C -13.8 °C 34029.3 hPa SW 20.8 km/h 33.6 km/h 91 % 0 mm 12 W/m2
07:40 -12.9 °C -13.7 °C 34029.3 hPa WSW 5.1 km/h 33.6 km/h 91 % 0 mm 12 W/m2
07:50 -13.1 °C -13.8 °C 34029.3 hPa WSW 10.3 km/h 41.4 km/h 91 % 7.62 mm 18 W/m2
07:55 -13.2 °C -13.9 °C 34029.3 hPa SW 12.9 km/h 33.6 km/h 91 % 7.62 mm 25 W/m2
08:00 -13.2 °C -14.1 °C 34029.3 hPa WSW 12.9 km/h 33.6 km/h 90 % 7.62 mm 23 W/m2
08:05 -13.2 °C -14.2 °C 34029.3 hPa WSW 7.7 km/h 25.9 km/h 89 % 7.62 mm 39 W/m2
08:10 -13.2 °C -14.2 °C 34029.3 hPa West 20.8 km/h 28.5 km/h 89 % 7.62 mm 37 W/m2
08:15 -13.2 °C -14.1 °C 34029.3 hPa West 25.9 km/h 31.1 km/h 89 % 7.62 mm 40 W/m2
08:20 -13.2 °C -14.1 °C 34039.5 hPa WNW 20.8 km/h 33.6 km/h 89 % 7.62 mm 39 W/m2
08:25 -13.1 °C -14.1 °C 34039.5 hPa WSW 20.8 km/h 41.4 km/h 89 % 7.62 mm 46 W/m2
08:30 -13.1 °C -14 °C 34039.5 hPa WNW 28.5 km/h 41.4 km/h 89 % 7.62 mm 67 W/m2
08:35 -13 °C -14.1 °C 34039.5 hPa West 5.1 km/h 38.8 km/h 88 % 7.62 mm 74 W/m2
08:40 -13.1 °C -14.1 °C 34039.5 hPa WNW 12.9 km/h 31.1 km/h 88 % 7.62 mm 93 W/m2
08:45 -13.1 °C -14.2 °C 34049.6 hPa NW 20.8 km/h 36.2 km/h 87 % 0 mm 102 W/m2
08:50 -13 °C -14.2 °C 34049.6 hPa West 7.7 km/h 36.2 km/h 87 % 0 mm 113 W/m2
09:00 -12.9 °C -14.1 °C 34049.6 hPa WNW 12.9 km/h 41.4 km/h 86 % 0 mm 121 W/m2
09:05 -12.9 °C -14.2 °C 34063.2 hPa NW 23.3 km/h 44.1 km/h 86 % 0 mm 65 W/m2
09:10 -13.3 °C -14.7 °C 34063.2 hPa NW 12.9 km/h 44.1 km/h 85 % 0 mm 49 W/m2
09:15 -13.6 °C -14.7 °C 34063.2 hPa WNW 7.7 km/h 36.2 km/h 87 % 0 mm 93 W/m2
09:20 -13.7 °C -14.7 °C 34063.2 hPa West 7.7 km/h 33.6 km/h 88 % 0 mm 105 W/m2
09:25 -13.8 °C -14.7 °C 34063.2 hPa NW 7.7 km/h 25.9 km/h 89 % 0 mm 111 W/m2
09:30 -13.7 °C -14.6 °C 34063.2 hPa West 10.3 km/h 20.8 km/h 90 % 0 mm 123 W/m2
09:40 -13.7 °C -14.6 °C 34063.2 hPa WNW 5.1 km/h 23.3 km/h 89 % 0 mm 158 W/m2
09:45 -13.6 °C -14.5 °C 34063.2 hPa West 5.1 km/h 20.8 km/h 89 % 0 mm 179 W/m2
09:50 -13.4 °C -14.4 °C 34073.3 hPa Calm   15.6 km/h 89 % 0 mm 186 W/m2
09:55 -13.3 °C -14.4 °C 34073.3 hPa SW 5.1 km/h 7.7 km/h 87 % 0 mm 172 W/m2
10:00 -13.3 °C -14.6 °C 34073.3 hPa WSW 7.7 km/h 15.6 km/h 86 % 0 mm 167 W/m2
10:10 -13.2 °C -14.4 °C 34073.3 hPa WNW 5.1 km/h 15.6 km/h 86 % 0 mm 167 W/m2
10:15 -13.2 °C -14.4 °C 34073.3 hPa West 2.6 km/h 15.6 km/h 86 % 0 mm 190 W/m2
10:20 -13.1 °C -14.4 °C 34073.3 hPa West 7.7 km/h 20.8 km/h 85 % 0 mm 246 W/m2
10:25 -13 °C -14.3 °C 34073.3 hPa WNW 5.1 km/h 20.8 km/h 85 % 0 mm 237 W/m2
10:30 -12.9 °C -14.5 °C 34073.3 hPa WSW 5.1 km/h 20.8 km/h 83 % 0 mm 272 W/m2
10:35 -12.8 °C -14.3 °C 34073.3 hPa WSW 5.1 km/h 20.8 km/h 84 % 0 mm 366 W/m2
10:40 -12.7 °C -14.4 °C 34073.3 hPa WNW 15.6 km/h 18.2 km/h 82 % 0 mm 243 W/m2
10:45 -12.8 °C -14.3 °C 34073.3 hPa WSW 7.7 km/h 20.8 km/h 83 % 0 mm 236 W/m2
10:50 -12.7 °C -14.3 °C 34073.3 hPa WSW 7.7 km/h 20.8 km/h 83 % 0 mm 207 W/m2
10:55 -12.7 °C -14.2 °C 34073.3 hPa WSW 5.1 km/h 15.6 km/h 83 % 0 mm 308 W/m2
11:00 -12.6 °C -14.2 °C 34073.3 hPa SW 5.1 km/h 15.6 km/h 83 % 0 mm 315 W/m2
11:05 -12.6 °C -14.3 °C 34086.9 hPa WSW 12.9 km/h 18.2 km/h 81 % 0 mm 316 W/m2
11:10 -12.6 °C -14.3 °C 34086.9 hPa WSW 7.7 km/h 20.8 km/h 81 % 0 mm 301 W/m2
11:15 -12.6 °C -14.4 °C 34086.9 hPa SSW 7.7 km/h 20.8 km/h 80 % 0 mm 264 W/m2
11:20 -12.5 °C -14.1 °C 34086.9 hPa West 12.9 km/h 18.2 km/h 82 % 0 mm 269 W/m2
11:25 -12.5 °C -14.2 °C 34086.9 hPa SW 5.1 km/h 12.9 km/h 81 % 0 mm 265 W/m2
11:30 -12.6 °C -14.3 °C 34073.3 hPa WSW 10.3 km/h 15.6 km/h 80 % 0 mm 244 W/m2
11:35 -12.6 °C -14.3 °C 34073.3 hPa WSW 7.7 km/h 15.6 km/h 80 % 0 mm 251 W/m2
11:40 -12.5 °C -14.3 °C 34073.3 hPa SW 5.1 km/h 18.2 km/h 80 % 0 mm 285 W/m2
11:45 -12.4 °C -14.2 °C 34073.3 hPa West 10.3 km/h 18.2 km/h 80 % 0 mm 265 W/m2
11:50 -12.4 °C -14.4 °C 34073.3 hPa WSW 15.6 km/h 20.8 km/h 78 % 0 mm 253 W/m2
11:55 -12.6 °C -14.6 °C 34073.3 hPa West 12.9 km/h 20.8 km/h 78 % 0 mm 216 W/m2
12:00 -12.5 °C -14.5 °C 34086.9 hPa WSW 10.3 km/h 20.8 km/h 78 % 0 mm 253 W/m2
12:05 -12.5 °C -14.4 °C 34086.9 hPa SW 12.9 km/h 20.8 km/h 79 % 0 mm 262 W/m2
12:10 -12.5 °C -14.5 °C 34086.9 hPa West 12.9 km/h 18.2 km/h 78 % 0 mm 276 W/m2
12:15 -12.4 °C -14.3 °C 34086.9 hPa WSW 10.3 km/h 15.6 km/h 80 % 0 mm 329 W/m2
12:20 -12.3 °C -14.2 °C 34073.3 hPa WSW 7.7 km/h 18.2 km/h 79 % 0 mm 534 W/m2
12:25 -12 °C -13.9 °C 34073.3 hPa SW 2.6 km/h 18.2 km/h 79 % 0 mm 446 W/m2
12:30 -12.1 °C -14.5 °C 34073.3 hPa SSW 7.7 km/h 18.2 km/h 75 % 0 mm 315 W/m2
12:35 -12.2 °C -14.3 °C 34086.9 hPa South 10.3 km/h 15.6 km/h 77 % 0 mm 316 W/m2
12:40 -12.3 °C -14.3 °C 34086.9 hPa SSW 7.7 km/h 18.2 km/h 78 % 0 mm 297 W/m2
12:45 -12.3 °C -14.3 °C 34073.3 hPa SW 10.3 km/h 18.2 km/h 78 % 0 mm 285 W/m2
12:50 -12.4 °C -14.4 °C 34073.3 hPa WSW 7.7 km/h 12.9 km/h 78 % 0 mm 267 W/m2
12:55 -12.3 °C -14.4 °C 34073.3 hPa SW 7.7 km/h 12.9 km/h 78 % 0 mm 253 W/m2
13:00 -12.3 °C -14.7 °C 34073.3 hPa South 2.6 km/h 15.6 km/h 75 % 0 mm 258 W/m2
13:05 -12.4 °C -14.8 °C 34073.3 hPa South 5.1 km/h 15.6 km/h 74 % 0 mm 244 W/m2
13:10 -12.4 °C -14.7 °C 34073.3 hPa South 5.1 km/h 10.3 km/h 75 % 0 mm 244 W/m2
13:15 -12.4 °C -14.8 °C 34073.3 hPa SSW 5.1 km/h 15.6 km/h 74 % 0 mm 258 W/m2
13:20 -12.4 °C -14.8 °C 34073.3 hPa Calm   15.6 km/h 74 % 0 mm 250 W/m2
13:25 -12.3 °C -14.7 °C 34073.3 hPa SSW 2.6 km/h 10.3 km/h 75 % 0 mm 239 W/m2
13:30 -12.3 °C -14.7 °C 34073.3 hPa South 7.7 km/h 18.2 km/h 75 % 0 mm 216 W/m2
13:35 -12.3 °C -14.5 °C 34073.3 hPa South 7.7 km/h 18.2 km/h 76 % 0 mm 229 W/m2
13:40 -12.3 °C -14.7 °C 34073.3 hPa WSW 2.6 km/h 12.9 km/h 74 % 0 mm 250 W/m2
13:45 -12.2 °C -14.6 °C 34073.3 hPa Calm   12.9 km/h 75 % 0 mm 227 W/m2
13:50 -12.2 °C -14.6 °C 34073.3 hPa SW 15.6 km/h 15.6 km/h 75 % 0 mm 220 W/m2
13:55 -12.2 °C -14.8 °C 34073.3 hPa South 15.6 km/h 18.2 km/h 73 % 0 mm 207 W/m2
14:00 -12.3 °C -14.8 °C 34073.3 hPa South 12.9 km/h 18.2 km/h 73 % 0 mm 202 W/m2
14:05 -12.2 °C -14.4 °C 34073.3 hPa Calm   18.2 km/h 76 % 0 mm 193 W/m2
14:10 -12.2 °C -14.4 °C 34073.3 hPa South 2.6 km/h 18.2 km/h 76 % 0 mm 199 W/m2
14:20 -12.2 °C -14.8 °C 34073.3 hPa SSW 10.3 km/h 20.8 km/h 73 % 0 mm 248 W/m2
14:25 -12.2 °C -14.7 °C 34073.3 hPa SSE 10.3 km/h 23.3 km/h 74 % 0 mm 204 W/m2
14:30 -12.3 °C -14.7 °C 34063.2 hPa SSW 12.9 km/h 23.3 km/h 74 % 0 mm 197 W/m2
14:40 -12.1 °C -14.6 °C 34063.2 hPa South 12.9 km/h 20.8 km/h 74 % 0 mm 301 W/m2
14:45 -12.1 °C -14.1 °C 34063.2 hPa South 20.8 km/h 31.1 km/h 78 % 0 mm 148 W/m2
14:50 -12.4 °C -14.2 °C 34063.2 hPa South 15.6 km/h 36.2 km/h 81 % 0 mm 176 W/m2
15:00 -12.7 °C -14.2 °C 34063.2 hPa SE 18.2 km/h 38.8 km/h 83 % 0 mm 220 W/m2
15:05 -12.6 °C -14.2 °C 34049.6 hPa South 18.2 km/h 31.1 km/h 83 % 0 mm 207 W/m2
15:15 -12.7 °C -14.3 °C 34049.6 hPa SSE 15.6 km/h 28.5 km/h 82 % 0 mm 204 W/m2
15:25 -12.7 °C -14.4 °C 34063.2 hPa SSE 18.2 km/h 28.5 km/h 81 % 0 mm 225 W/m2
15:35 -12.4 °C -14.3 °C 34049.6 hPa SSW 20.8 km/h 25.9 km/h 80 % 0 mm 309 W/m2
15:45 -12 °C -14.1 °C 34049.6 hPa SE 15.6 km/h 23.3 km/h 78 % 0 mm 615 W/m2
15:50 -11.9 °C -14.1 °C 34049.6 hPa SE 18.2 km/h 23.3 km/h 76 % 0 mm 459 W/m2
15:55 -12 °C -14.1 °C 34049.6 hPa South 7.7 km/h 28.5 km/h 77 % 0 mm 236 W/m2
16:00 -12.2 °C -14.3 °C 34049.6 hPa SSE 18.2 km/h 28.5 km/h 78 % 0 mm 278 W/m2
16:05 -12.2 °C -14.2 °C 34049.6 hPa South 12.9 km/h 28.5 km/h 79 % 0 mm 227 W/m2
16:10 -12.3 °C -14.2 °C 34039.5 hPa South 12.9 km/h 28.5 km/h 79 % 0 mm 221 W/m2
16:15 -12.4 °C -14.4 °C 34039.5 hPa South 10.3 km/h 28.5 km/h 78 % 0 mm 221 W/m2
16:20 -12.4 °C -14.2 °C 34049.6 hPa SSE 10.3 km/h 28.5 km/h 80 % 0 mm 223 W/m2
16:25 -12.4 °C -14.2 °C 34049.6 hPa SSE 10.3 km/h 25.9 km/h 80 % 0 mm 232 W/m2
16:30 -12.4 °C -14.1 °C 34039.5 hPa SE 18.2 km/h 25.9 km/h 81 % 0 mm 181 W/m2
16:40 -12.4 °C -14.2 °C 34039.5 hPa SSE 7.7 km/h 23.3 km/h 81 % 0 mm 153 W/m2
16:45 -12.6 °C -14.3 °C 34039.5 hPa South 15.6 km/h 23.3 km/h 81 % 0 mm 155 W/m2
16:50 -12.6 °C -14.2 °C 34039.5 hPa South 2.6 km/h 25.9 km/h 82 % 0 mm 141 W/m2
16:55 -12.7 °C -14.3 °C 34039.5 hPa SE 7.7 km/h 25.9 km/h 82 % 0 mm 132 W/m2
17:00 -12.7 °C -14.4 °C 34049.6 hPa SSE 12.9 km/h 31.1 km/h 82 % 0 mm 125 W/m2
17:05 -12.8 °C -14.3 °C 34049.6 hPa SSE 10.3 km/h 31.1 km/h 83 % 0 mm 123 W/m2
17:10 -12.9 °C -14.4 °C 34049.6 hPa SSE 10.3 km/h 25.9 km/h 83 % 0 mm 130 W/m2
17:15 -12.9 °C -14.4 °C 34049.6 hPa SE 15.6 km/h 25.9 km/h 83 % 0 mm 125 W/m2
17:20 -12.9 °C -14.5 °C 34049.6 hPa SSE 7.7 km/h 25.9 km/h 83 % 0 mm 98 W/m2
17:25 -13 °C -14.5 °C 34049.6 hPa SE 10.3 km/h 23.3 km/h 83 % 0 mm 67 W/m2
17:30 -13 °C -14.4 °C 34049.6 hPa SSE 10.3 km/h 23.3 km/h 84 % 0 mm 49 W/m2
17:35 -13 °C -14.4 °C 34049.6 hPa SE 7.7 km/h 23.3 km/h 84 % 0 mm 30 W/m2
17:40 -13.1 °C -14.5 °C 34049.6 hPa SSW 12.9 km/h 25.9 km/h 84 % 0 mm 16 W/m2
17:45 -13.3 °C -14.8 °C 34063.2 hPa South 25.9 km/h 44.1 km/h 83 % 0 mm 14 W/m2
17:55 -13.7 °C -14.8 °C 34063.2 hPa South 23.3 km/h 33.6 km/h 87 % 0 mm 7 W/m2
18:00 -13.9 °C -14.9 °C 34073.3 hPa South 18.2 km/h 36.2 km/h 88 % 7.62 mm 5 W/m2
18:05 -14 °C -14.9 °C 34073.3 hPa SSE 7.7 km/h 36.2 km/h 89 % 12.7 mm 5 W/m2
18:10 -14.1 °C -14.9 °C 34073.3 hPa South 18.2 km/h 28.5 km/h 90 % 12.7 mm 5 W/m2
18:15 -14.1 °C -14.8 °C 34086.9 hPa South 10.3 km/h 28.5 km/h 91 % 25.4 mm 0 W/m2
18:20 -14.2 °C -14.9 °C 34073.3 hPa SSE 7.7 km/h 28.5 km/h 91 % 38.1 mm 5 W/m2
18:25 -14.3 °C -15.1 °C 34073.3 hPa SE 7.7 km/h 20.8 km/h 91 % 58.42 mm 11 W/m2
18:30 -14.3 °C -15 °C 34073.3 hPa SSE 5.1 km/h 20.8 km/h 92 % 58.42 mm 18 W/m2
18:35 -14.4 °C -14.9 °C 34073.3 hPa SE 5.1 km/h 18.2 km/h 93 % 58.42 mm 32 W/m2
18:40 -14.3 °C -14.9 °C 34073.3 hPa ESE 2.6 km/h 18.2 km/h 93 % 63.5 mm 32 W/m2
18:45 -14.4 °C -15 °C 34073.3 hPa SE 7.7 km/h 18.2 km/h 93 % 63.5 mm 19 W/m2
18:55 -14.6 °C -15.2 °C 34073.3 hPa East 5.1 km/h 18.2 km/h 93 % 58.42 mm 18 W/m2
19:00 -14.6 °C -15.2 °C 34073.3 hPa East 7.7 km/h 18.2 km/h 93 % 58.42 mm 16 W/m2
19:05 -14.6 °C -15.1 °C 34073.3 hPa ESE 12.9 km/h 18.2 km/h 94 % 58.42 mm 11 W/m2
19:10 -14.7 °C -15.3 °C 34073.3 hPa ESE 7.7 km/h 18.2 km/h 93 % 50.8 mm 7 W/m2
19:15 -14.8 °C -15.2 °C 34073.3 hPa East 2.6 km/h 20.8 km/h 94 % 38.1 mm 5 W/m2
19:20 -14.8 °C -15.3 °C 34073.3 hPa ENE 7.7 km/h 20.8 km/h 94 % 25.4 mm 0 W/m2
19:25 -14.8 °C -15.3 °C 34073.3 hPa East 5.1 km/h 15.6 km/h 94 % 12.7 mm 0 W/m2
19:30 -14.9 °C -15.4 °C 34073.3 hPa ENE 5.1 km/h 12.9 km/h 94 % 7.62 mm 0 W/m2
19:35 -14.9 °C -15.4 °C 34073.3 hPa Calm   12.9 km/h 94 % 7.62 mm 0 W/m2
19:40 -15.1 °C -15.5 °C 34073.3 hPa East 2.6 km/h 12.9 km/h 94 % 0 mm 0 W/m2
19:45 -15.1 °C -15.6 °C 34073.3 hPa East 2.6 km/h 7.7 km/h 94 % 0 mm 0 W/m2
19:50 -15.2 °C -15.7 °C 34086.9 hPa East 2.6 km/h 7.7 km/h 94 % 0 mm 0 W/m2
19:55 -15.3 °C -15.8 °C 34086.9 hPa East 2.6 km/h 7.7 km/h 94 % 0 mm 0 W/m2
20:00 -15.3 °C -15.7 °C 34086.9 hPa East 2.6 km/h 12.9 km/h 95 % 0 mm 0 W/m2
20:05 -15.3 °C -15.8 °C 34097 hPa East 2.6 km/h 12.9 km/h 94 % 0 mm 0 W/m2
20:10 -15.3 °C -15.7 °C 34097 hPa ESE 5.1 km/h 7.7 km/h 95 % 0 mm 0 W/m2
20:15 -15.3 °C -15.7 °C 34097 hPa SE 7.7 km/h 10.3 km/h 95 % 0 mm 0 W/m2
20:20 -15.2 °C -15.6 °C 34097 hPa ESE 7.7 km/h 10.3 km/h 95 % 0 mm 0 W/m2
20:25 -15.1 °C -15.6 °C 34097 hPa Calm   10.3 km/h 95 % 0 mm 0 W/m2
20:30 -15.1 °C -15.5 °C 34097 hPa Calm   12.9 km/h 95 % 0 mm 0 W/m2
20:35 -15.1 °C -15.6 °C 34097 hPa ESE 7.7 km/h 20.8 km/h 95 % 0 mm 0 W/m2
20:40 -15.2 °C -15.6 °C 34086.9 hPa East 2.6 km/h 20.8 km/h 95 % 0 mm 0 W/m2
20:45 -15.2 °C -15.6 °C 34086.9 hPa East 2.6 km/h 12.9 km/h 95 % 0 mm 0 W/m2
20:50 -15.2 °C -15.6 °C 34073.3 hPa ENE 5.1 km/h 10.3 km/h 95 % 0 mm 0 W/m2
20:55 -15.2 °C -15.7 °C 34073.3 hPa East 7.7 km/h 18.2 km/h 95 % 0 mm 0 W/m2
21:00 -15.3 °C -15.7 °C 34073.3 hPa ESE 5.1 km/h 18.2 km/h 95 % 0 mm 0 W/m2
21:10 -15.4 °C -15.8 °C 34086.9 hPa SE 2.6 km/h 10.3 km/h 95 % 0 mm 0 W/m2
21:15 -15.4 °C -15.8 °C 34097 hPa Calm   10.3 km/h 95 % 0 mm 0 W/m2
21:20 -15.4 °C -15.8 °C 34097 hPa SE 2.6 km/h 10.3 km/h 95 % 0 mm 0 W/m2
21:25 -15.4 °C -15.8 °C 34097 hPa SE 7.7 km/h 10.3 km/h 95 % 0 mm 0 W/m2
21:30 -15.5 °C -15.9 °C 34097 hPa Calm   10.3 km/h 95 % 0 mm 0 W/m2
21:35 -15.5 °C -15.9 °C 34097 hPa SE 2.6 km/h 10.3 km/h 95 % 0 mm 0 W/m2
21:40 -15.6 °C -16 °C 34097 hPa SE 2.6 km/h 7.7 km/h 95 % 0 mm 0 W/m2
21:45 -15.7 °C -15.9 °C 34097 hPa Calm   7.7 km/h 96 % 0 mm 0 W/m2
21:50 -15.7 °C -15.9 °C 34097 hPa SE 5.1 km/h 7.7 km/h 96 % 0 mm 0 W/m2
22:00 -15.9 °C -16.2 °C 34097 hPa Calm   7.7 km/h 96 % 0 mm 0 W/m2
22:05 -16 °C -16.3 °C 34097 hPa Calm   2.6 km/h 96 % 0 mm 0 W/m2
22:10 -15.9 °C -16.2 °C 34097 hPa Calm   2.6 km/h 96 % 0 mm 0 W/m2
22:15 -16.1 °C -16.4 °C 34086.9 hPa Calm   2.6 km/h 96 % 0 mm 0 W/m2
22:20 -16.1 °C -16.4 °C 34086.9 hPa Calm   5.1 km/h 96 % 0 mm 0 W/m2
22:25 -16.1 °C -16.4 °C 34086.9 hPa SE 2.6 km/h 7.7 km/h 96 % 0 mm 0 W/m2
22:30 -16.2 °C -16.5 °C 34086.9 hPa Calm   7.7 km/h 96 % 0 mm 0 W/m2
22:35 -16.1 °C -16.3 °C 34086.9 hPa SE 2.6 km/h 10.3 km/h 97 % 0 mm 0 W/m2
22:40 -15.9 °C -16.2 °C 34097 hPa SE 5.1 km/h 10.3 km/h 97 % 0 mm 0 W/m2
22:45 -15.9 °C -16.2 °C 34097 hPa SE 2.6 km/h 10.3 km/h 97 % 0 mm 0 W/m2
22:50 -16 °C -16.2 °C 34097 hPa Calm   10.3 km/h 97 % 0 mm 0 W/m2
22:55 -15.9 °C -16.2 °C 34097 hPa SE 2.6 km/h 12.9 km/h 97 % 0 mm 0 W/m2
23:00 -15.8 °C -16 °C 34097 hPa SE 5.1 km/h 12.9 km/h 97 % 0 mm 0 W/m2
23:05 -15.8 °C -16 °C 34086.9 hPa ESE 2.6 km/h 10.3 km/h 97 % 0 mm 0 W/m2
23:10 -15.7 °C -16 °C 34086.9 hPa ESE 5.1 km/h 10.3 km/h 97 % 0 mm 0 W/m2
23:15 -15.7 °C -15.9 °C 34097 hPa East 5.1 km/h 12.9 km/h 97 % 0 mm 0 W/m2
23:20 -15.6 °C -15.8 °C 34097 hPa ESE 2.6 km/h 12.9 km/h 97 % 0 mm 0 W/m2
23:25 -15.5 °C -15.8 °C 34097 hPa SE 10.3 km/h 12.9 km/h 97 % 0 mm 0 W/m2
23:30 -15.5 °C -15.8 °C 34097 hPa Calm   12.9 km/h 97 % 0 mm 0 W/m2
23:35 -15.4 °C -15.7 °C 34097 hPa Calm   12.9 km/h 97 % 0 mm 0 W/m2
23:40 -15.4 °C -15.7 °C 34097 hPa ESE 7.7 km/h 10.3 km/h 97 % 0 mm 0 W/m2
23:45 -15.4 °C -15.7 °C 34086.9 hPa ESE 7.7 km/h 15.6 km/h 97 % 0 mm 0 W/m2
23:50 -15.4 °C -15.6 °C 34086.9 hPa ESE 7.7 km/h 15.6 km/h 97 % 0 mm 0 W/m2
23:55 -15.3 °C -15.6 °C 34097 hPa Calm   15.6 km/h 97 % 0 mm 0 W/m2
Avec l'autorisation de Weather Underground - 1.5 mb